sensor_id;sensor_type;location;lat;lon;timestamp;pressure;altitude;pressure_sealevel;temperature;humidity
55517;BME280;41724;51.176;-0.708;2024-01-10T00:02:11;102423.41;;;4.71;52.13
55517;BME280;41724;51.176;-0.708;2024-01-10T00:04:39;102422.09;;;4.88;51.64
55517;BME280;41724;51.176;-0.708;2024-01-10T00:07:06;102421.92;;;4.56;51.79
55517;BME280;41724;51.176;-0.708;2024-01-10T00:09:33;102420.77;;;4.45;51.73
55517;BME280;41724;51.176;-0.708;2024-01-10T00:12:01;102416.79;;;4.25;51.66
55517;BME280;41724;51.176;-0.708;2024-01-10T00:14:28;102421.87;;;4.32;52.11
55517;BME280;41724;51.176;-0.708;2024-01-10T00:16:55;102417.04;;;4.47;51.96
55517;BME280;41724;51.176;-0.708;2024-01-10T00:19:23;102416.93;;;4.59;51.56
55517;BME280;41724;51.176;-0.708;2024-01-10T00:21:50;102417.57;;;4.44;51.91
55517;BME280;41724;51.176;-0.708;2024-01-10T00:24:17;102420.61;;;4.33;51.89
55517;BME280;41724;51.176;-0.708;2024-01-10T00:26:44;102416.86;;;4.51;51.98
55517;BME280;41724;51.176;-0.708;2024-01-10T00:29:12;102413.50;;;4.38;51.50
55517;BME280;41724;51.176;-0.708;2024-01-10T00:31:43;102413.04;;;4.46;51.81
55517;BME280;41724;51.176;-0.708;2024-01-10T00:34:10;102420.77;;;4.30;51.90
55517;BME280;41724;51.176;-0.708;2024-01-10T00:36:37;102417.71;;;4.93;51.61
55517;BME280;41724;51.176;-0.708;2024-01-10T00:39:05;102412.30;;;3.98;52.72
55517;BME280;41724;51.176;-0.708;2024-01-10T00:41:32;102416.21;;;4.72;52.22
55517;BME280;41724;51.176;-0.708;2024-01-10T00:43:59;102417.51;;;4.14;52.13
55517;BME280;41724;51.176;-0.708;2024-01-10T00:46:27;102411.54;;;4.35;51.99
55517;BME280;41724;51.176;-0.708;2024-01-10T00:48:54;102412.64;;;4.20;52.05
55517;BME280;41724;51.176;-0.708;2024-01-10T00:51:22;102416.76;;;4.48;51.75
55517;BME280;41724;51.176;-0.708;2024-01-10T00:53:49;102415.42;;;4.12;51.64
55517;BME280;41724;51.176;-0.708;2024-01-10T00:56:16;102413.03;;;4.19;52.32
55517;BME280;41724;51.176;-0.708;2024-01-10T00:58:44;102413.28;;;4.16;52.86
55517;BME280;41724;51.176;-0.708;2024-01-10T01:01:11;102408.14;;;4.15;52.03
55517;BME280;41724;51.176;-0.708;2024-01-10T01:03:38;102404.01;;;4.16;51.95
55517;BME280;41724;51.176;-0.708;2024-01-10T01:06:05;102407.59;;;4.15;52.75
55517;BME280;41724;51.176;-0.708;2024-01-10T01:08:33;102403.55;;;4.19;52.53
55517;BME280;41724;51.176;-0.708;2024-01-10T01:11:00;102402.47;;;4.40;51.95
55517;BME280;41724;51.176;-0.708;2024-01-10T01:13:27;102401.73;;;4.33;52.12
55517;BME280;41724;51.176;-0.708;2024-01-10T01:15:55;102403.14;;;4.28;52.26
55517;BME280;41724;51.176;-0.708;2024-01-10T01:18:21;102404.76;;;4.02;52.72
55517;BME280;41724;51.176;-0.708;2024-01-10T01:20:49;102401.09;;;4.22;52.60
55517;BME280;41724;51.176;-0.708;2024-01-10T01:23:16;102400.32;;;4.31;52.52
55517;BME280;41724;51.176;-0.708;2024-01-10T01:25:43;102398.71;;;4.07;52.65
55517;BME280;41724;51.176;-0.708;2024-01-10T01:28:10;102400.90;;;4.53;52.02
55517;BME280;41724;51.176;-0.708;2024-01-10T01:30:37;102398.86;;;4.25;52.45
55517;BME280;41724;51.176;-0.708;2024-01-10T01:33:04;102398.09;;;4.35;51.83
55517;BME280;41724;51.176;-0.708;2024-01-10T01:35:31;102403.29;;;4.11;52.45
55517;BME280;41724;51.176;-0.708;2024-01-10T01:37:59;102405.44;;;4.10;52.53
55517;BME280;41724;51.176;-0.708;2024-01-10T01:40:26;102403.13;;;4.04;52.25
55517;BME280;41724;51.176;-0.708;2024-01-10T01:42:53;102403.14;;;3.97;52.14
55517;BME280;41724;51.176;-0.708;2024-01-10T01:45:21;102405.06;;;3.96;52.72
55517;BME280;41724;51.176;-0.708;2024-01-10T01:47:48;102403.24;;;4.33;52.47
55517;BME280;41724;51.176;-0.708;2024-01-10T01:50:16;102400.65;;;3.72;52.88
55517;BME280;41724;51.176;-0.708;2024-01-10T01:52:43;102398.24;;;3.82;52.57
55517;BME280;41724;51.176;-0.708;2024-01-10T01:55:11;102400.44;;;3.72;52.64
55517;BME280;41724;51.176;-0.708;2024-01-10T01:57:39;102397.13;;;3.92;52.71
55517;BME280;41724;51.176;-0.708;2024-01-10T02:00:08;102397.01;;;3.69;52.62
55517;BME280;41724;51.176;-0.708;2024-01-10T02:02:36;102396.10;;;4.25;52.16
55517;BME280;41724;51.176;-0.708;2024-01-10T02:05:04;102392.90;;;4.01;53.12
55517;BME280;41724;51.176;-0.708;2024-01-10T02:07:31;102387.44;;;3.97;53.14
55517;BME280;41724;51.176;-0.708;2024-01-10T02:09:58;102388.02;;;3.57;52.76
55517;BME280;41724;51.176;-0.708;2024-01-10T02:12:25;102387.19;;;3.68;52.85
55517;BME280;41724;51.176;-0.708;2024-01-10T02:14:52;102386.95;;;3.93;52.84
55517;BME280;41724;51.176;-0.708;2024-01-10T02:17:19;102391.98;;;3.45;53.12
55517;BME280;41724;51.176;-0.708;2024-01-10T02:19:47;102391.52;;;3.79;52.90
55517;BME280;41724;51.176;-0.708;2024-01-10T02:22:14;102390.15;;;3.68;52.99
55517;BME280;41724;51.176;-0.708;2024-01-10T02:24:41;102387.05;;;3.34;53.25
55517;BME280;41724;51.176;-0.708;2024-01-10T02:27:08;102385.25;;;3.51;53.24
55517;BME280;41724;51.176;-0.708;2024-01-10T02:29:36;102388.58;;;3.49;52.95
55517;BME280;41724;51.176;-0.708;2024-01-10T02:32:04;102386.60;;;3.44;53.28
55517;BME280;41724;51.176;-0.708;2024-01-10T02:34:30;102385.91;;;3.19;53.93
55517;BME280;41724;51.176;-0.708;2024-01-10T02:36:58;102385.23;;;3.56;53.35
55517;BME280;41724;51.176;-0.708;2024-01-10T02:39:25;102379.50;;;3.32;53.95
55517;BME280;41724;51.176;-0.708;2024-01-10T02:41:53;102374.35;;;3.42;53.58
55517;BME280;41724;51.176;-0.708;2024-01-10T02:44:20;102373.14;;;3.10;54.12
55517;BME280;41724;51.176;-0.708;2024-01-10T02:46:47;102374.69;;;2.96;54.20
55517;BME280;41724;51.176;-0.708;2024-01-10T02:49:14;102375.27;;;3.26;53.99
55517;BME280;41724;51.176;-0.708;2024-01-10T02:51:42;102373.76;;;3.31;53.37
55517;BME280;41724;51.176;-0.708;2024-01-10T02:54:09;102376.44;;;3.19;53.88
55517;BME280;41724;51.176;-0.708;2024-01-10T02:56:36;102373.75;;;3.29;53.32
55517;BME280;41724;51.176;-0.708;2024-01-10T02:59:04;102370.83;;;2.96;54.20
55517;BME280;41724;51.176;-0.708;2024-01-10T03:01:32;102367.55;;;3.15;53.45
55517;BME280;41724;51.176;-0.708;2024-01-10T03:03:59;102367.90;;;2.98;53.81
55517;BME280;41724;51.176;-0.708;2024-01-10T03:06:26;102364.26;;;3.21;53.36
55517;BME280;41724;51.176;-0.708;2024-01-10T03:08:55;102364.11;;;2.85;54.19
55517;BME280;41724;51.176;-0.708;2024-01-10T03:11:22;102369.13;;;3.22;53.20
55517;BME280;41724;51.176;-0.708;2024-01-10T03:13:52;102372.10;;;2.99;53.73
55517;BME280;41724;51.176;-0.708;2024-01-10T03:16:19;102376.50;;;2.84;53.49
55517;BME280;41724;51.176;-0.708;2024-01-10T03:18:47;102374.00;;;2.98;53.90
55517;BME280;41724;51.176;-0.708;2024-01-10T03:21:14;102373.89;;;2.99;54.59
55517;BME280;41724;51.176;-0.708;2024-01-10T03:23:41;102375.82;;;3.02;54.50
55517;BME280;41724;51.176;-0.708;2024-01-10T03:26:10;102371.09;;;3.09;54.25
55517;BME280;41724;51.176;-0.708;2024-01-10T03:28:36;102373.43;;;2.67;54.05
55517;BME280;41724;51.176;-0.708;2024-01-10T03:31:04;102372.83;;;2.95;53.97
55517;BME280;41724;51.176;-0.708;2024-01-10T03:33:31;102372.30;;;2.69;54.45
55517;BME280;41724;51.176;-0.708;2024-01-10T03:35:59;102369.72;;;3.08;54.88
55517;BME280;41724;51.176;-0.708;2024-01-10T03:38:26;102367.45;;;2.82;54.52
55517;BME280;41724;51.176;-0.708;2024-01-10T03:40:54;102366.28;;;2.77;53.98
55517;BME280;41724;51.176;-0.708;2024-01-10T03:43:21;102366.03;;;2.77;54.34
55517;BME280;41724;51.176;-0.708;2024-01-10T03:45:48;102362.59;;;3.01;53.67
55517;BME280;41724;51.176;-0.708;2024-01-10T03:48:16;102361.04;;;2.55;53.84
55517;BME280;41724;51.176;-0.708;2024-01-10T03:50:43;102356.51;;;2.55;53.67
55517;BME280;41724;51.176;-0.708;2024-01-10T03:53:11;102357.42;;;2.88;53.79
55517;BME280;41724;51.176;-0.708;2024-01-10T03:55:38;102352.42;;;2.76;53.72
55517;BME280;41724;51.176;-0.708;2024-01-10T03:58:06;102351.75;;;2.94;53.46
55517;BME280;41724;51.176;-0.708;2024-01-10T04:00:33;102348.39;;;2.60;54.15
55517;BME280;41724;51.176;-0.708;2024-01-10T04:03:00;102346.53;;;2.49;53.53
55517;BME280;41724;51.176;-0.708;2024-01-10T04:05:28;102349.46;;;2.85;53.58
55517;BME280;41724;51.176;-0.708;2024-01-10T04:07:55;102349.12;;;2.67;53.41
55517;BME280;41724;51.176;-0.708;2024-01-10T04:10:23;102350.92;;;2.41;53.11
55517;BME280;41724;51.176;-0.708;2024-01-10T04:12:50;102352.12;;;2.89;53.61
55517;BME280;41724;51.176;-0.708;2024-01-10T04:15:18;102347.38;;;2.56;53.79
55517;BME280;41724;51.176;-0.708;2024-01-10T04:17:45;102344.03;;;2.53;54.35
55517;BME280;41724;51.176;-0.708;2024-01-10T04:20:12;102345.67;;;2.53;54.49
55517;BME280;41724;51.176;-0.708;2024-01-10T04:22:40;102346.43;;;2.46;54.46
55517;BME280;41724;51.176;-0.708;2024-01-10T04:25:08;102345.58;;;2.51;53.92
55517;BME280;41724;51.176;-0.708;2024-01-10T04:27:34;102343.02;;;2.79;53.96
55517;BME280;41724;51.176;-0.708;2024-01-10T04:30:02;102340.88;;;2.48;53.79
55517;BME280;41724;51.176;-0.708;2024-01-10T04:32:29;102334.23;;;2.47;54.98
55517;BME280;41724;51.176;-0.708;2024-01-10T04:34:56;102337.49;;;2.56;54.41
55517;BME280;41724;51.176;-0.708;2024-01-10T04:37:24;102334.21;;;2.94;53.46
55517;BME280;41724;51.176;-0.708;2024-01-10T04:39:51;102338.43;;;2.33;53.46
55517;BME280;41724;51.176;-0.708;2024-01-10T04:42:19;102340.05;;;2.46;53.61
55517;BME280;41724;51.176;-0.708;2024-01-10T04:44:46;102337.58;;;2.53;53.67
55517;BME280;41724;51.176;-0.708;2024-01-10T04:47:13;102336.18;;;2.68;53.71
55517;BME280;41724;51.176;-0.708;2024-01-10T04:49:41;102337.17;;;2.45;53.50
55517;BME280;41724;51.176;-0.708;2024-01-10T04:52:08;102340.98;;;2.71;53.86
55517;BME280;41724;51.176;-0.708;2024-01-10T04:54:35;102341.10;;;2.58;53.97
55517;BME280;41724;51.176;-0.708;2024-01-10T04:57:03;102340.60;;;2.56;53.65
55517;BME280;41724;51.176;-0.708;2024-01-10T04:59:30;102337.74;;;2.21;54.32
55517;BME280;41724;51.176;-0.708;2024-01-10T05:01:57;102343.98;;;2.33;53.70
55517;BME280;41724;51.176;-0.708;2024-01-10T05:04:24;102344.17;;;2.44;53.82
55517;BME280;41724;51.176;-0.708;2024-01-10T05:06:51;102347.35;;;2.11;53.42
55517;BME280;41724;51.176;-0.708;2024-01-10T05:09:18;102345.37;;;2.16;54.25
55517;BME280;41724;51.176;-0.708;2024-01-10T05:11:45;102345.25;;;2.20;54.11
55517;BME280;41724;51.176;-0.708;2024-01-10T05:14:13;102344.84;;;2.33;53.73
55517;BME280;41724;51.176;-0.708;2024-01-10T05:16:39;102343.82;;;2.24;53.90
55517;BME280;41724;51.176;-0.708;2024-01-10T05:19:07;102342.71;;;1.97;54.81
55517;BME280;41724;51.176;-0.708;2024-01-10T05:21:34;102342.96;;;1.83;55.24
55517;BME280;41724;51.176;-0.708;2024-01-10T05:24:01;102344.96;;;2.28;54.84
55517;BME280;41724;51.176;-0.708;2024-01-10T05:26:29;102345.40;;;2.14;54.48
55517;BME280;41724;51.176;-0.708;2024-01-10T05:28:56;102340.86;;;2.04;54.20
55517;BME280;41724;51.176;-0.708;2024-01-10T05:31:24;102342.67;;;2.23;54.48
55517;BME280;41724;51.176;-0.708;2024-01-10T05:33:51;102343.05;;;1.98;55.89
55517;BME280;41724;51.176;-0.708;2024-01-10T05:36:21;102337.78;;;2.23;54.24
55517;BME280;41724;51.176;-0.708;2024-01-10T05:38:48;102338.21;;;2.19;55.54
55517;BME280;41724;51.176;-0.708;2024-01-10T05:41:15;102339.84;;;2.10;56.04
55517;BME280;41724;51.176;-0.708;2024-01-10T05:43:42;102335.93;;;2.45;54.77
55517;BME280;41724;51.176;-0.708;2024-01-10T05:46:10;102337.14;;;2.31;54.31
55517;BME280;41724;51.176;-0.708;2024-01-10T05:48:37;102335.16;;;2.24;54.86
55517;BME280;41724;51.176;-0.708;2024-01-10T05:51:05;102336.22;;;2.33;54.53
55517;BME280;41724;51.176;-0.708;2024-01-10T05:53:32;102339.29;;;2.88;54.36
55517;BME280;41724;51.176;-0.708;2024-01-10T05:55:59;102341.54;;;2.83;54.67
55517;BME280;41724;51.176;-0.708;2024-01-10T05:58:27;102344.15;;;2.28;54.79
55517;BME280;41724;51.176;-0.708;2024-01-10T06:00:54;102340.41;;;2.84;54.40
55517;BME280;41724;51.176;-0.708;2024-01-10T06:03:22;102341.30;;;2.75;54.01
55517;BME280;41724;51.176;-0.708;2024-01-10T06:05:49;102339.90;;;2.63;54.23
55517;BME280;41724;51.176;-0.708;2024-01-10T06:08:17;102339.69;;;2.73;53.49
55517;BME280;41724;51.176;-0.708;2024-01-10T06:10:44;102343.25;;;2.72;53.97
55517;BME280;41724;51.176;-0.708;2024-01-10T06:13:12;102342.00;;;2.63;54.27
55517;BME280;41724;51.176;-0.708;2024-01-10T06:15:39;102343.40;;;2.29;54.85
55517;BME280;41724;51.176;-0.708;2024-01-10T06:18:06;102345.46;;;2.07;54.51
55517;BME280;41724;51.176;-0.708;2024-01-10T06:20:34;102345.74;;;2.45;54.47
55517;BME280;41724;51.176;-0.708;2024-01-10T06:23:01;102348.93;;;2.40;53.65
55517;BME280;41724;51.176;-0.708;2024-01-10T06:25:29;102352.85;;;2.24;54.24
55517;BME280;41724;51.176;-0.708;2024-01-10T06:27:56;102354.99;;;2.38;54.49
55517;BME280;41724;51.176;-0.708;2024-01-10T06:30:23;102356.15;;;2.04;54.81
55517;BME280;41724;51.176;-0.708;2024-01-10T06:32:50;102355.09;;;2.08;55.28
55517;BME280;41724;51.176;-0.708;2024-01-10T06:35:18;102359.24;;;2.40;55.25
55517;BME280;41724;51.176;-0.708;2024-01-10T06:37:45;102355.97;;;2.28;55.23
55517;BME280;41724;51.176;-0.708;2024-01-10T06:40:12;102355.91;;;2.34;55.32
55517;BME280;41724;51.176;-0.708;2024-01-10T06:42:40;102357.61;;;2.08;54.94
55517;BME280;41724;51.176;-0.708;2024-01-10T06:45:08;102357.17;;;2.30;54.26
55517;BME280;41724;51.176;-0.708;2024-01-10T06:47:35;102360.49;;;2.25;54.01
55517;BME280;41724;51.176;-0.708;2024-01-10T06:50:03;102360.82;;;2.43;54.20
55517;BME280;41724;51.176;-0.708;2024-01-10T06:52:30;102359.27;;;1.99;54.74
55517;BME280;41724;51.176;-0.708;2024-01-10T06:54:58;102356.98;;;1.98;55.67
55517;BME280;41724;51.176;-0.708;2024-01-10T06:57:25;102357.99;;;2.05;55.59
55517;BME280;41724;51.176;-0.708;2024-01-10T06:59:53;102359.02;;;2.12;54.74
55517;BME280;41724;51.176;-0.708;2024-01-10T07:02:20;102360.54;;;2.30;54.95
55517;BME280;41724;51.176;-0.708;2024-01-10T07:04:48;102360.53;;;2.23;54.82
55517;BME280;41724;51.176;-0.708;2024-01-10T07:07:15;102361.69;;;1.91;55.31
55517;BME280;41724;51.176;-0.708;2024-01-10T07:09:42;102360.85;;;1.80;55.54
55517;BME280;41724;51.176;-0.708;2024-01-10T07:12:09;102359.79;;;2.22;55.05
55517;BME280;41724;51.176;-0.708;2024-01-10T07:14:36;102359.86;;;2.11;54.84
55517;BME280;41724;51.176;-0.708;2024-01-10T07:17:04;102362.60;;;1.97;55.05
55517;BME280;41724;51.176;-0.708;2024-01-10T07:19:31;102361.37;;;2.00;55.54
55517;BME280;41724;51.176;-0.708;2024-01-10T07:21:59;102369.78;;;2.19;54.77
55517;BME280;41724;51.176;-0.708;2024-01-10T07:24:26;102368.05;;;1.81;54.60
55517;BME280;41724;51.176;-0.708;2024-01-10T07:26:54;102369.20;;;1.97;54.90
55517;BME280;41724;51.176;-0.708;2024-01-10T07:29:21;102367.99;;;2.09;54.65
55517;BME280;41724;51.176;-0.708;2024-01-10T07:31:48;102373.65;;;1.60;55.16
55517;BME280;41724;51.176;-0.708;2024-01-10T07:34:15;102373.71;;;1.85;54.99
55517;BME280;41724;51.176;-0.708;2024-01-10T07:36:43;102374.39;;;2.02;55.00
55517;BME280;41724;51.176;-0.708;2024-01-10T07:39:10;102378.21;;;1.81;54.94
55517;BME280;41724;51.176;-0.708;2024-01-10T07:41:38;102375.93;;;1.86;55.28
55517;BME280;41724;51.176;-0.708;2024-01-10T07:44:04;102378.54;;;1.38;56.08
55517;BME280;41724;51.176;-0.708;2024-01-10T07:46:32;102376.43;;;1.85;55.37
55517;BME280;41724;51.176;-0.708;2024-01-10T07:48:59;102378.36;;;1.63;55.75
55517;BME280;41724;51.176;-0.708;2024-01-10T07:51:27;102380.94;;;1.92;54.94
55517;BME280;41724;51.176;-0.708;2024-01-10T07:53:54;102380.92;;;1.88;54.64
55517;BME280;41724;51.176;-0.708;2024-01-10T07:56:22;102376.78;;;1.94;54.60
55517;BME280;41724;51.176;-0.708;2024-01-10T07:58:49;102382.52;;;1.75;55.33
55517;BME280;41724;51.176;-0.708;2024-01-10T08:01:16;102387.43;;;1.78;55.16
55517;BME280;41724;51.176;-0.708;2024-01-10T08:03:43;102381.60;;;1.92;54.98
55517;BME280;41724;51.176;-0.708;2024-01-10T08:06:11;102386.18;;;1.83;56.28
55517;BME280;41724;51.176;-0.708;2024-01-10T08:08:37;102387.98;;;1.75;55.87
55517;BME280;41724;51.176;-0.708;2024-01-10T08:11:05;102386.80;;;1.95;55.17
55517;BME280;41724;51.176;-0.708;2024-01-10T08:13:32;102393.73;;;1.72;55.83
55517;BME280;41724;51.176;-0.708;2024-01-10T08:16:00;102391.56;;;2.01;55.99
55517;BME280;41724;51.176;-0.708;2024-01-10T08:18:27;102397.08;;;1.77;54.91
55517;BME280;41724;51.176;-0.708;2024-01-10T08:20:54;102396.36;;;1.52;57.15
55517;BME280;41724;51.176;-0.708;2024-01-10T08:23:21;102395.64;;;1.96;55.40
55517;BME280;41724;51.176;-0.708;2024-01-10T08:25:49;102390.26;;;2.13;54.76
55517;BME280;41724;51.176;-0.708;2024-01-10T08:28:15;102391.59;;;2.04;54.66
55517;BME280;41724;51.176;-0.708;2024-01-10T08:30:43;102397.55;;;2.11;54.86
55517;BME280;41724;51.176;-0.708;2024-01-10T08:33:11;102396.87;;;2.14;54.71
55517;BME280;41724;51.176;-0.708;2024-01-10T08:35:38;102394.42;;;2.23;54.61
55517;BME280;41724;51.176;-0.708;2024-01-10T08:38:05;102396.47;;;2.30;53.95
55517;BME280;41724;51.176;-0.708;2024-01-10T08:40:33;102397.75;;;1.99;54.34
55517;BME280;41724;51.176;-0.708;2024-01-10T08:43:00;102398.34;;;2.30;55.08
55517;BME280;41724;51.176;-0.708;2024-01-10T08:45:27;102405.69;;;1.66;55.51
55517;BME280;41724;51.176;-0.708;2024-01-10T08:47:53;102404.92;;;2.02;54.94
55517;BME280;41724;51.176;-0.708;2024-01-10T08:50:20;102403.84;;;2.16;54.92
55517;BME280;41724;51.176;-0.708;2024-01-10T08:52:47;102401.30;;;2.15;54.83
55517;BME280;41724;51.176;-0.708;2024-01-10T08:55:14;102401.47;;;2.46;55.17
55517;BME280;41724;51.176;-0.708;2024-01-10T08:57:42;102402.95;;;2.52;54.79
55517;BME280;41724;51.176;-0.708;2024-01-10T09:00:11;102401.87;;;2.29;54.60
55517;BME280;41724;51.176;-0.708;2024-01-10T09:02:38;102400.39;;;2.39;54.61
55517;BME280;41724;51.176;-0.708;2024-01-10T09:05:06;102396.61;;;2.30;54.91
55517;BME280;41724;51.176;-0.708;2024-01-10T09:07:34;102396.49;;;2.64;54.79
55517;BME280;41724;51.176;-0.708;2024-01-10T09:10:00;102395.40;;;2.37;55.77
55517;BME280;41724;51.176;-0.708;2024-01-10T09:12:28;102398.25;;;2.37;56.50
55517;BME280;41724;51.176;-0.708;2024-01-10T09:14:55;102399.31;;;2.59;56.24
55517;BME280;41724;51.176;-0.708;2024-01-10T09:17:22;102402.92;;;2.30;55.52
55517;BME280;41724;51.176;-0.708;2024-01-10T09:19:50;102404.72;;;2.70;55.32
55517;BME280;41724;51.176;-0.708;2024-01-10T09:22:18;102398.70;;;2.90;55.71
55517;BME280;41724;51.176;-0.708;2024-01-10T09:24:45;102398.52;;;3.29;54.93
55517;BME280;41724;51.176;-0.708;2024-01-10T09:27:13;102402.80;;;2.83;55.37
55517;BME280;41724;51.176;-0.708;2024-01-10T09:29:40;102399.50;;;2.99;54.74
55517;BME280;41724;51.176;-0.708;2024-01-10T09:32:09;102396.56;;;3.10;54.96
55517;BME280;41724;51.176;-0.708;2024-01-10T09:34:35;102397.94;;;3.28;54.82
55517;BME280;41724;51.176;-0.708;2024-01-10T09:37:03;102396.68;;;3.60;54.59
55517;BME280;41724;51.176;-0.708;2024-01-10T09:39:31;102391.35;;;3.31;55.13
55517;BME280;41724;51.176;-0.708;2024-01-10T09:41:58;102393.44;;;3.65;54.54
55517;BME280;41724;51.176;-0.708;2024-01-10T09:44:25;102393.22;;;3.77;54.58
55517;BME280;41724;51.176;-0.708;2024-01-10T09:46:54;102396.15;;;3.63;55.13
55517;BME280;41724;51.176;-0.708;2024-01-10T09:49:22;102396.05;;;3.36;55.54
55517;BME280;41724;51.176;-0.708;2024-01-10T09:51:49;102396.98;;;3.71;54.26
55517;BME280;41724;51.176;-0.708;2024-01-10T09:54:16;102394.85;;;3.39;55.80
55517;BME280;41724;51.176;-0.708;2024-01-10T09:56:45;102394.08;;;3.41;56.35
55517;BME280;41724;51.176;-0.708;2024-01-10T09:59:12;102396.26;;;3.55;55.43
55517;BME280;41724;51.176;-0.708;2024-01-10T10:01:39;102394.23;;;3.60;55.31
55517;BME280;41724;51.176;-0.708;2024-01-10T10:04:07;102399.03;;;3.75;55.90
55517;BME280;41724;51.176;-0.708;2024-01-10T10:06:36;102398.29;;;3.73;55.09
55517;BME280;41724;51.176;-0.708;2024-01-10T10:09:03;102400.03;;;3.59;56.30
55517;BME280;41724;51.176;-0.708;2024-01-10T10:11:30;102400.78;;;3.82;55.53
55517;BME280;41724;51.176;-0.708;2024-01-10T10:14:13;102404.43;;;4.09;55.77
55517;BME280;41724;51.176;-0.708;2024-01-10T10:16:41;102403.89;;;3.85;55.58
55517;BME280;41724;51.176;-0.708;2024-01-10T10:19:08;102397.97;;;4.35;54.88
55517;BME280;41724;51.176;-0.708;2024-01-10T10:21:35;102393.08;;;4.31;55.11
55517;BME280;41724;51.176;-0.708;2024-01-10T10:24:02;102397.59;;;4.65;54.87
55517;BME280;41724;51.176;-0.708;2024-01-10T10:26:34;102398.86;;;4.14;54.71
55517;BME280;41724;51.176;-0.708;2024-01-10T10:29:01;102401.06;;;3.97;55.41
55517;BME280;41724;51.176;-0.708;2024-01-10T10:31:29;102400.46;;;4.00;54.55
55517;BME280;41724;51.176;-0.708;2024-01-10T10:33:56;102402.04;;;3.06;56.83
55517;BME280;41724;51.176;-0.708;2024-01-10T10:36:23;102396.63;;;2.90;58.00
55517;BME280;41724;51.176;-0.708;2024-01-10T10:38:50;102397.15;;;3.73;57.50
55517;BME280;41724;51.176;-0.708;2024-01-10T10:41:19;102399.17;;;4.37;56.27
55517;BME280;41724;51.176;-0.708;2024-01-10T10:43:47;102395.87;;;4.48;55.06
55517;BME280;41724;51.176;-0.708;2024-01-10T10:46:15;102395.88;;;4.71;53.57
55517;BME280;41724;51.176;-0.708;2024-01-10T10:48:43;102391.14;;;4.77;53.75
55517;BME280;41724;51.176;-0.708;2024-01-10T10:51:11;102388.75;;;4.72;52.88
55517;BME280;41724;51.176;-0.708;2024-01-10T10:53:43;102390.45;;;4.98;54.24
55517;BME280;41724;51.176;-0.708;2024-01-10T10:56:12;102390.13;;;4.47;54.82
55517;BME280;41724;51.176;-0.708;2024-01-10T10:58:41;102389.64;;;4.79;53.82
55517;BME280;41724;51.176;-0.708;2024-01-10T11:01:11;102380.72;;;4.21;54.93
55517;BME280;41724;51.176;-0.708;2024-01-10T11:03:40;102385.87;;;3.90;57.30
55517;BME280;41724;51.176;-0.708;2024-01-10T11:06:07;102381.21;;;4.39;54.88
55517;BME280;41724;51.176;-0.708;2024-01-10T11:08:36;102379.78;;;5.08;54.34
55517;BME280;41724;51.176;-0.708;2024-01-10T11:11:07;102370.17;;;5.22;53.50
55517;BME280;41724;51.176;-0.708;2024-01-10T11:13:56;102368.45;;;5.61;53.02
55517;BME280;41724;51.176;-0.708;2024-01-10T11:16:47;102365.38;;;5.19;52.26
55517;BME280;41724;51.176;-0.708;2024-01-10T11:19:43;102373.29;;;4.49;53.98
55517;BME280;41724;51.176;-0.708;2024-01-10T11:22:36;102373.36;;;4.71;54.78
55517;BME280;41724;51.176;-0.708;2024-01-10T11:25:07;102367.61;;;4.37;55.58
55517;BME280;41724;51.176;-0.708;2024-01-10T11:27:38;102367.08;;;4.17;55.07
55517;BME280;41724;51.176;-0.708;2024-01-10T11:30:06;102363.79;;;4.75;55.28
55517;BME280;41724;51.176;-0.708;2024-01-10T11:32:33;102367.21;;;5.16;53.72
55517;BME280;41724;51.176;-0.708;2024-01-10T11:35:03;102353.39;;;5.43;52.31
55517;BME280;41724;51.176;-0.708;2024-01-10T11:37:39;102360.78;;;4.60;53.60
55517;BME280;41724;51.176;-0.708;2024-01-10T11:40:10;102354.74;;;5.59;52.98
55517;BME280;41724;51.176;-0.708;2024-01-10T11:42:41;102357.30;;;4.33;54.26
55517;BME280;41724;51.176;-0.708;2024-01-10T11:45:09;102356.15;;;4.25;55.55
55517;BME280;41724;51.176;-0.708;2024-01-10T11:47:38;102347.23;;;5.24;52.91
55517;BME280;41724;51.176;-0.708;2024-01-10T11:50:07;102346.30;;;4.70;53.45
55517;BME280;41724;51.176;-0.708;2024-01-10T11:52:36;102348.97;;;4.74;53.04
55517;BME280;41724;51.176;-0.708;2024-01-10T11:55:04;102342.41;;;5.23;53.29
55517;BME280;41724;51.176;-0.708;2024-01-10T11:57:31;102337.47;;;5.09;53.09
55517;BME280;41724;51.176;-0.708;2024-01-10T11:59:59;102337.92;;;5.29;51.98
55517;BME280;41724;51.176;-0.708;2024-01-10T12:02:27;102335.21;;;6.02;50.31
55517;BME280;41724;51.176;-0.708;2024-01-10T12:04:54;102329.33;;;5.99;50.11
55517;BME280;41724;51.176;-0.708;2024-01-10T12:07:22;102332.88;;;5.37;51.87
55517;BME280;41724;51.176;-0.708;2024-01-10T12:09:48;102330.23;;;5.66;50.80
55517;BME280;41724;51.176;-0.708;2024-01-10T12:12:16;102325.94;;;5.92;49.87
55517;BME280;41724;51.176;-0.708;2024-01-10T12:14:43;102324.80;;;5.96;51.51
55517;BME280;41724;51.176;-0.708;2024-01-10T12:17:10;102326.67;;;5.47;51.66
55517;BME280;41724;51.176;-0.708;2024-01-10T12:19:38;102319.22;;;5.44;50.87
55517;BME280;41724;51.176;-0.708;2024-01-10T12:22:05;102314.55;;;5.27;52.31
55517;BME280;41724;51.176;-0.708;2024-01-10T12:24:32;102306.76;;;5.53;51.84
55517;BME280;41724;51.176;-0.708;2024-01-10T12:27:00;102301.89;;;6.06;50.70
55517;BME280;41724;51.176;-0.708;2024-01-10T12:29:27;102295.25;;;5.47;51.05
55517;BME280;41724;51.176;-0.708;2024-01-10T12:31:54;102290.87;;;6.18;48.77
55517;BME280;41724;51.176;-0.708;2024-01-10T12:34:22;102291.67;;;6.09;49.39
55517;BME280;41724;51.176;-0.708;2024-01-10T12:36:49;102290.29;;;6.12;48.67
55517;BME280;41724;51.176;-0.708;2024-01-10T12:39:16;102294.77;;;6.41;48.65
55517;BME280;41724;51.176;-0.708;2024-01-10T12:41:43;102296.34;;;6.38;48.28
55517;BME280;41724;51.176;-0.708;2024-01-10T12:44:11;102299.26;;;6.05;50.12
55517;BME280;41724;51.176;-0.708;2024-01-10T12:46:49;102290.74;;;6.11;49.27
55517;BME280;41724;51.176;-0.708;2024-01-10T12:49:16;102289.57;;;6.50;49.00
55517;BME280;41724;51.176;-0.708;2024-01-10T12:51:43;102280.11;;;6.86;46.87
55517;BME280;41724;51.176;-0.708;2024-01-10T12:54:11;102283.97;;;6.38;47.18